PWSweather.com
Personal Weather Stations
Station Observations
KTXPLANO60
Highlands Of Russell Park, Plano, TX 75025

Highlands Of Russell ParkPlano, TX 75025

Lat: 33.10431671, Lon: -96.75176239

Elevation: 761

Station Type: Davis Wireless VP2 Plus

http://www.planoweather.com

High Low Average
Temperature 84.5°F29.2°F 65.9°F18.8°F 75.1°F23.9°F
Dew Point 69.8°F21.0°F 55.8°F13.2°F 62.6°F17.0°F
Winds 10.4 mph -16.7 mph - 1.2 mph 1.9 mph 5.3 mph 8.5 mph
Wind Gusts 13.8 mph22.2 mph 3.5 mph5.6 mph 8.2 mph13.2 mph
Humidity 92% 44% 68%
Pressure 29.87 in1011.50 in 29.62 in1003.00 in -
Precipitation 0.06 in1.50 in - -
Hour Temp Dew Point Humidity Winds Wind Gusts Pressure Precip Precip Rate Daily Precip Total
12:00 AM 69.1°F20.6°C 66.7°F19.3°C 92% 6.9 mph SSE11.1 kmh SSE 12.7 mph20.4 kmh 29.63 in1003.4 mb - 0.00 in0.0 mm 0.00 in0.0 mm
12:10 AM 69.5°F20.8°C 67.1°F19.5°C 92% 6.9 mph SSE11.1 kmh SSE 11.5 mph18.5 kmh 29.63 in1003.4 mb - 0.00 in0.0 mm 0.00 in0.0 mm
12:20 AM 69.9°F21.1°C 67.5°F19.7°C 92% 5.8 mph SSE9.3 kmh SSE 6.9 mph11.1 kmh 29.62 in1003.0 mb - 0.00 in0.0 mm 0.00 in0.0 mm
12:30 AM 70.3°F21.3°C 67.9°F19.9°C 92% 8.1 mph SSE13.0 kmh SSE 11.5 mph18.5 kmh 29.62 in1003.0 mb - 0.00 in0.0 mm 0.00 in0.0 mm
12:40 AM 70.5°F21.4°C 68.0°F20.0°C 92% 9.2 mph S14.8 kmh S 12.7 mph20.4 kmh 29.62 in1003.0 mb - 0.00 in0.0 mm 0.00 in0.0 mm
12:50 AM 70.6°F21.4°C 68.1°F20.1°C 92% 5.8 mph S9.3 kmh S 11.5 mph18.5 kmh 29.62 in1003.0 mb - 0.00 in0.0 mm 0.00 in0.0 mm
01:00 AM 70.5°F21.4°C 68.1°F20.1°C 92% 8.1 mph S13.0 kmh S 11.5 mph18.5 kmh 29.62 in1003.0 mb - 0.00 in0.0 mm 0.00 in0.0 mm
01:10 AM 70.6°F21.4°C 68.2°F20.1°C 92% 8.1 mph S13.0 kmh S 13.8 mph22.2 kmh 29.62 in1003.0 mb - 0.00 in0.0 mm 0.00 in0.0 mm
01:20 AM 70.7°F21.5°C 68.3°F20.2°C 92% 8.1 mph SSE13.0 kmh SSE 9.2 mph14.8 kmh 29.63 in1003.4 mb - 0.00 in0.0 mm 0.00 in0.0 mm
01:30 AM 70.9°F21.6°C 68.5°F20.3°C 92% 8.1 mph S13.0 kmh S 10.4 mph16.7 kmh 29.63 in1003.4 mb - 0.00 in0.0 mm 0.00 in0.0 mm
01:40 AM 70.9°F21.6°C 68.1°F20.1°C 91% 6.9 mph SSE11.1 kmh SSE 8.1 mph13.0 kmh 29.64 in1003.7 mb - 0.00 in0.0 mm 0.00 in0.0 mm
01:50 AM 71.0°F21.7°C 68.2°F20.1°C 91% 5.8 mph SSE9.3 kmh SSE 11.5 mph18.5 kmh 29.64 in1003.7 mb - 0.00 in0.0 mm 0.00 in0.0 mm
02:00 AM 71.0°F21.7°C 68.2°F20.1°C 91% 8.1 mph S13.0 kmh S 10.4 mph16.7 kmh 29.65 in1004.1 mb - 0.00 in0.0 mm 0.00 in0.0 mm
02:10 AM 71.1°F21.7°C 68.3°F20.2°C 91% 8.1 mph S13.0 kmh S 13.8 mph22.2 kmh 29.65 in1004.1 mb - 0.00 in0.0 mm 0.00 in0.0 mm
02:20 AM 71.2°F21.8°C 68.4°F20.2°C 91% 8.1 mph S13.0 kmh S 11.5 mph18.5 kmh 29.65 in1004.1 mb - 0.00 in0.0 mm 0.00 in0.0 mm
02:30 AM 71.3°F21.8°C 68.5°F20.3°C 91% 10.4 mph S16.7 kmh S 13.8 mph22.2 kmh 29.65 in1004.1 mb - 0.00 in0.0 mm 0.00 in0.0 mm
02:40 AM 71.4°F21.9°C 68.6°F20.3°C 91% 5.8 mph S9.3 kmh S 9.2 mph14.8 kmh 29.65 in1004.1 mb - 0.00 in0.0 mm 0.00 in0.0 mm
02:50 AM 71.5°F21.9°C 68.7°F20.4°C 91% 6.9 mph SSW11.1 kmh SSW 12.7 mph20.4 kmh 29.65 in1004.1 mb - 0.00 in0.0 mm 0.00 in0.0 mm
03:00 AM 71.6°F22.0°C 68.8°F20.4°C 91% 4.6 mph S7.4 kmh S 11.5 mph18.5 kmh 29.65 in1004.1 mb - 0.00 in0.0 mm 0.00 in0.0 mm
03:10 AM 71.8°F22.1°C 69.0°F20.6°C 91% 8.1 mph SSW13.0 kmh SSW 11.5 mph18.5 kmh 29.66 in1004.4 mb - 0.00 in0.0 mm 0.00 in0.0 mm
03:20 AM 71.8°F22.1°C 69.0°F20.6°C 91% 6.9 mph S11.1 kmh S 8.1 mph13.0 kmh 29.65 in1004.1 mb - 0.00 in0.0 mm 0.00 in0.0 mm
03:30 AM 71.7°F22.1°C 68.9°F20.5°C 91% 8.1 mph S13.0 kmh S 11.5 mph18.5 kmh 29.65 in1004.1 mb - 0.00 in0.0 mm 0.00 in0.0 mm
03:40 AM 71.8°F22.1°C 69.0°F20.6°C 91% 9.2 mph SSW14.8 kmh SSW 11.5 mph18.5 kmh 29.66 in1004.4 mb - 0.00 in0.0 mm 0.00 in0.0 mm
03:50 AM 71.9°F22.2°C 69.1°F20.6°C 91% 6.9 mph S11.1 kmh S 11.5 mph18.5 kmh 29.66 in1004.4 mb - 0.00 in0.0 mm 0.00 in0.0 mm
04:00 AM 72.1°F22.3°C 69.3°F20.7°C 91% 8.1 mph S13.0 kmh S 10.4 mph16.7 kmh 29.66 in1004.4 mb - 0.00 in0.0 mm 0.00 in0.0 mm
04:10 AM 72.2°F22.3°C 69.4°F20.8°C 91% 5.8 mph S9.3 kmh S 8.1 mph13.0 kmh 29.66 in1004.4 mb - 0.00 in0.0 mm 0.00 in0.0 mm
04:20 AM 72.1°F22.3°C 69.3°F20.7°C 91% 6.9 mph S11.1 kmh S 10.4 mph16.7 kmh 29.66 in1004.4 mb - 0.00 in0.0 mm 0.00 in0.0 mm
04:30 AM 72.2°F22.3°C 69.4°F20.8°C 91% 6.9 mph S11.1 kmh S 9.2 mph14.8 kmh 29.67 in1004.7 mb - 0.00 in0.0 mm 0.00 in0.0 mm
04:40 AM 72.3°F22.4°C 69.5°F20.8°C 91% 3.5 mph SW5.6 kmh SW 5.8 mph9.3 kmh 29.68 in1005.1 mb - 0.00 in0.0 mm 0.00 in0.0 mm
04:50 AM 72.5°F22.5°C 69.7°F20.9°C 91% 4.6 mph SW7.4 kmh SW 9.2 mph14.8 kmh 29.70 in1005.8 mb - 0.00 in0.0 mm 0.00 in0.0 mm
05:00 AM 72.6°F22.6°C 69.8°F21.0°C 91% 5.8 mph WSW9.3 kmh WSW 5.8 mph9.3 kmh 29.70 in1005.8 mb - 0.00 in0.0 mm 0.00 in0.0 mm
05:10 AM 72.6°F22.6°C 69.8°F21.0°C 91% 2.3 mph WSW3.7 kmh WSW 4.6 mph7.4 kmh 29.70 in1005.8 mb - 0.00 in0.0 mm 0.00 in0.0 mm
05:20 AM 72.3°F22.4°C 69.5°F20.8°C 91% 4.6 mph SW7.4 kmh SW 6.9 mph11.1 kmh 29.70 in1005.8 mb - 0.00 in0.0 mm 0.00 in0.0 mm
05:30 AM 72.0°F22.2°C 69.2°F20.7°C 91% 2.3 mph SW3.7 kmh SW 4.6 mph7.4 kmh 29.70 in1005.8 mb - 0.00 in0.0 mm 0.00 in0.0 mm
05:40 AM 71.7°F22.1°C 68.9°F20.5°C 91% 4.6 mph WSW7.4 kmh WSW 5.8 mph9.3 kmh 29.71 in1006.1 mb - 0.00 in0.0 mm 0.00 in0.0 mm
05:50 AM 71.5°F21.9°C 68.8°F20.4°C 91% 3.5 mph W5.6 kmh W 4.6 mph7.4 kmh 29.71 in1006.1 mb - 0.00 in0.0 mm 0.00 in0.0 mm
06:00 AM 71.4°F21.9°C 68.6°F20.3°C 91% 5.8 mph W9.3 kmh W 6.9 mph11.1 kmh 29.71 in1006.1 mb - 0.00 in0.0 mm 0.00 in0.0 mm
06:10 AM 70.9°F21.6°C 68.1°F20.1°C 91% 5.8 mph W9.3 kmh W 6.9 mph11.1 kmh 29.72 in1006.4 mb - 0.00 in0.0 mm 0.00 in0.0 mm
06:20 AM 69.4°F20.8°C 67.0°F19.4°C 92% 4.6 mph W7.4 kmh W 6.9 mph11.1 kmh 29.72 in1006.4 mb - 0.00 in0.0 mm 0.00 in0.0 mm
06:30 AM 68.6°F20.3°C 66.2°F19.0°C 92% 4.6 mph WNW7.4 kmh WNW 8.1 mph13.0 kmh 29.73 in1006.8 mb - 0.00 in0.0 mm 0.00 in0.0 mm
06:40 AM 68.1°F20.1°C 65.7°F18.7°C 92% 3.5 mph NW5.6 kmh NW 5.8 mph9.3 kmh 29.74 in1007.1 mb - 0.00 in0.0 mm 0.00 in0.0 mm
06:50 AM 67.8°F19.9°C 65.4°F18.6°C 92% 4.6 mph NW7.4 kmh NW 9.2 mph14.8 kmh 29.75 in1007.5 mb - 0.00 in0.0 mm 0.00 in0.0 mm
07:00 AM 67.4°F19.7°C 64.9°F18.3°C 92% 6.9 mph NW11.1 kmh NW 11.5 mph18.5 kmh 29.75 in1007.5 mb - 0.00 in0.0 mm 0.00 in0.0 mm
07:10 AM 66.5°F19.2°C 64.1°F17.8°C 92% 5.8 mph NW9.3 kmh NW 11.5 mph18.5 kmh 29.75 in1007.5 mb - 0.00 in0.0 mm 0.00 in0.0 mm
07:20 AM 66.1°F18.9°C 63.7°F17.6°C 92% 8.1 mph NW13.0 kmh NW 9.2 mph14.8 kmh 29.76 in1007.8 mb - 0.00 in0.0 mm 0.00 in0.0 mm
07:30 AM 65.9°F18.8°C 63.2°F17.3°C 91% 6.9 mph NNW11.1 kmh NNW 9.2 mph14.8 kmh 29.77 in1008.1 mb - 0.00 in0.0 mm 0.00 in0.0 mm
07:40 AM 65.9°F18.8°C 62.6°F17.0°C 89% 8.1 mph NNW13.0 kmh NNW 11.5 mph18.5 kmh 29.77 in1008.1 mb - 0.00 in0.0 mm 0.00 in0.0 mm
07:50 AM 66.1°F18.9°C 62.4°F16.9°C 88% 5.8 mph N9.3 kmh N 9.2 mph14.8 kmh 29.78 in1008.5 mb - 0.00 in0.0 mm 0.00 in0.0 mm
08:00 AM 66.3°F19.1°C 62.3°F16.8°C 87% 5.8 mph NW9.3 kmh NW 9.2 mph14.8 kmh 29.79 in1008.8 mb - 0.00 in0.0 mm 0.00 in0.0 mm
08:10 AM 66.5°F19.2°C 61.8°F16.6°C 85% 6.9 mph N11.1 kmh N 9.2 mph14.8 kmh 29.79 in1008.8 mb - 0.00 in0.0 mm 0.00 in0.0 mm
08:20 AM 66.8°F19.3°C 61.5°F16.4°C 83% 5.8 mph N9.3 kmh N 8.1 mph13.0 kmh 29.80 in1009.1 mb - 0.01 in0.3 mm 0.01 in0.3 mm
08:30 AM 67.0°F19.4°C 60.7°F15.9°C 80% 5.8 mph N9.3 kmh N 8.1 mph13.0 kmh 29.80 in1009.1 mb - 0.01 in0.3 mm 0.01 in0.3 mm
08:40 AM 67.4°F19.7°C 59.9°F15.5°C 77% 5.8 mph NNW9.3 kmh NNW 9.2 mph14.8 kmh 29.81 in1009.5 mb - 0.01 in0.3 mm 0.01 in0.3 mm
08:50 AM 67.8°F19.9°C 60.0°F15.6°C 76% 6.9 mph N11.1 kmh N 11.5 mph18.5 kmh 29.81 in1009.5 mb - 0.01 in0.3 mm 0.01 in0.3 mm
09:00 AM 68.3°F20.2°C 59.7°F15.4°C 74% 6.9 mph N11.1 kmh N 10.4 mph16.7 kmh 29.82 in1009.8 mb - 0.01 in0.3 mm 0.01 in0.3 mm
09:10 AM 68.6°F20.3°C 60.0°F15.6°C 74% 6.9 mph NNW11.1 kmh NNW 9.2 mph14.8 kmh 29.82 in1009.8 mb - 0.01 in0.3 mm 0.01 in0.3 mm
09:20 AM 69.4°F20.8°C 60.4°F15.8°C 73% 6.9 mph N11.1 kmh N 9.2 mph14.8 kmh 29.82 in1009.8 mb - 0.00 in0.0 mm 0.01 in0.3 mm
09:30 AM 70.1°F21.2°C 60.3°F15.7°C 71% 4.6 mph N7.4 kmh N 6.9 mph11.1 kmh 29.82 in1009.8 mb - 0.00 in0.0 mm 0.01 in0.3 mm
09:40 AM 70.8°F21.6°C 59.3°F15.2°C 67% 3.5 mph N5.6 kmh N 9.2 mph14.8 kmh 29.83 in1010.2 mb - 0.00 in0.0 mm 0.01 in0.3 mm
09:50 AM 71.7°F22.1°C 58.8°F14.9°C 64% 3.5 mph N5.6 kmh N 5.8 mph9.3 kmh 29.83 in1010.2 mb - 0.00 in0.0 mm 0.01 in0.3 mm
10:00 AM 72.6°F22.6°C 59.3°F15.2°C 63% 4.6 mph N7.4 kmh N 9.2 mph14.8 kmh 29.83 in1010.2 mb - 0.00 in0.0 mm 0.01 in0.3 mm
10:10 AM 73.1°F22.8°C 57.9°F14.4°C 59% 4.6 mph N7.4 kmh N 11.5 mph18.5 kmh 29.84 in1010.5 mb - 0.00 in0.0 mm 0.01 in0.3 mm
10:20 AM 73.7°F23.2°C 57.5°F14.2°C 57% 5.8 mph N9.3 kmh N 9.2 mph14.8 kmh 29.84 in1010.5 mb - 0.00 in0.0 mm 0.01 in0.3 mm
10:30 AM 74.7°F23.7°C 58.0°F14.4°C 56% 6.9 mph N11.1 kmh N 11.5 mph18.5 kmh 29.84 in1010.5 mb - 0.00 in0.0 mm 0.01 in0.3 mm
10:40 AM 75.4°F24.1°C 57.0°F13.9°C 53% 6.9 mph N11.1 kmh N 11.5 mph18.5 kmh 29.84 in1010.5 mb - 0.00 in0.0 mm 0.01 in0.3 mm
10:50 AM 75.2°F24.0°C 55.8°F13.2°C 51% 6.9 mph N11.1 kmh N 11.5 mph18.5 kmh 29.85 in1010.8 mb - 0.00 in0.0 mm 0.01 in0.3 mm
11:00 AM 75.6°F24.2°C 56.2°F13.4°C 51% 6.9 mph NNE11.1 kmh NNE 6.9 mph11.1 kmh 29.85 in1010.8 mb - 0.00 in0.0 mm 0.01 in0.3 mm
11:10 AM 76.2°F24.6°C 57.8°F14.3°C 53% 5.8 mph NNW9.3 kmh NNW 8.1 mph13.0 kmh 29.85 in1010.8 mb - 0.00 in0.0 mm 0.01 in0.3 mm
11:20 AM 76.4°F24.7°C 58.0°F14.4°C 53% 6.9 mph N11.1 kmh N 11.5 mph18.5 kmh 29.86 in1011.2 mb - 0.00 in0.0 mm 0.01 in0.3 mm
11:30 AM 77.1°F25.1°C 58.1°F14.5°C 52% 4.6 mph N7.4 kmh N 8.1 mph13.0 kmh 29.86 in1011.2 mb - 0.00 in0.0 mm 0.01 in0.3 mm
11:40 AM 77.2°F25.1°C 58.2°F14.6°C 52% 5.8 mph N9.3 kmh N 6.9 mph11.1 kmh 29.86 in1011.2 mb - 0.00 in0.0 mm 0.01 in0.3 mm
11:50 AM 77.6°F25.3°C 58.1°F14.5°C 51% 5.8 mph NW9.3 kmh NW 8.1 mph13.0 kmh 29.86 in1011.2 mb - 0.00 in0.0 mm 0.01 in0.3 mm
12:00 PM 77.5°F25.3°C 59.0°F15.0°C 53% 5.8 mph NNW9.3 kmh NNW 5.8 mph9.3 kmh 29.86 in1011.2 mb - 0.00 in0.0 mm 0.01 in0.3 mm
12:10 PM 78.3°F25.7°C 59.2°F15.1°C 52% 5.8 mph NNW9.3 kmh NNW 9.2 mph14.8 kmh 29.87 in1011.5 mb - 0.00 in0.0 mm 0.01 in0.3 mm
12:20 PM 78.7°F25.9°C 59.0°F15.0°C 51% 5.8 mph N9.3 kmh N 9.2 mph14.8 kmh 29.87 in1011.5 mb - 0.00 in0.0 mm 0.01 in0.3 mm
12:30 PM 78.8°F26.0°C 59.7°F15.4°C 52% 5.8 mph NNW9.3 kmh NNW 10.4 mph16.7 kmh 29.87 in1011.5 mb - 0.00 in0.0 mm 0.01 in0.3 mm
12:40 PM 79.4°F26.3°C 59.1°F15.1°C 50% 5.8 mph N9.3 kmh N 8.1 mph13.0 kmh 29.87 in1011.5 mb - 0.00 in0.0 mm 0.01 in0.3 mm
12:50 PM 79.6°F26.4°C 58.8°F14.9°C 49% 3.5 mph N5.6 kmh N 6.9 mph11.1 kmh 29.86 in1011.2 mb - 0.00 in0.0 mm 0.01 in0.3 mm
01:00 PM 80.0°F26.7°C 59.7°F15.4°C 50% 4.6 mph N7.4 kmh N 4.6 mph7.4 kmh 29.86 in1011.2 mb - 0.00 in0.0 mm 0.01 in0.3 mm
01:10 PM 79.9°F26.6°C 59.0°F15.0°C 49% 4.6 mph N7.4 kmh N 8.1 mph13.0 kmh 29.86 in1011.2 mb - 0.00 in0.0 mm 0.01 in0.3 mm
01:20 PM 80.3°F26.8°C 59.4°F15.2°C 49% 8.1 mph NNW13.0 kmh NNW 11.5 mph18.5 kmh 29.86 in1011.2 mb - 0.00 in0.0 mm 0.01 in0.3 mm
01:30 PM 80.0°F26.7°C 58.5°F14.7°C 48% 5.8 mph N9.3 kmh N 9.2 mph14.8 kmh 29.86 in1011.2 mb - 0.00 in0.0 mm 0.01 in0.3 mm
01:40 PM 79.8°F26.6°C 57.8°F14.3°C 47% 1.2 mph NE1.9 kmh NE 3.5 mph5.6 kmh 29.86 in1011.2 mb - 0.00 in0.0 mm 0.01 in0.3 mm
01:50 PM 80.4°F26.9°C 57.1°F13.9°C 45% 4.6 mph NNE7.4 kmh NNE 5.8 mph9.3 kmh 29.86 in1011.2 mb - 0.00 in0.0 mm 0.01 in0.3 mm
02:00 PM 80.6°F27.0°C 58.5°F14.7°C 47% 5.8 mph NE9.3 kmh NE 10.4 mph16.7 kmh 29.86 in1011.2 mb - 0.00 in0.0 mm 0.01 in0.3 mm
02:10 PM 80.7°F27.1°C 58.6°F14.8°C 47% 3.5 mph NNE5.6 kmh NNE 6.9 mph11.1 kmh 29.85 in1010.8 mb - 0.00 in0.0 mm 0.01 in0.3 mm
02:20 PM 81.1°F27.3°C 59.0°F15.0°C 47% 4.6 mph 7.4 kmh 10.4 mph16.7 kmh 29.84 in1010.5 mb - 0.00 in0.0 mm 0.01 in0.3 mm
02:30 PM 80.7°F27.1°C 56.8°F13.8°C 44% 2.3 mph NE3.7 kmh NE 4.6 mph7.4 kmh 29.84 in1010.5 mb - 0.00 in0.0 mm 0.01 in0.3 mm
02:40 PM 82.1°F27.8°C 59.3°F15.2°C 46% 4.6 mph NNE7.4 kmh NNE 9.2 mph14.8 kmh 29.84 in1010.5 mb - 0.00 in0.0 mm 0.01 in0.3 mm
02:50 PM 81.6°F27.6°C 59.4°F15.2°C 47% 3.5 mph NE5.6 kmh NE 3.5 mph5.6 kmh 29.85 in1010.8 mb - 0.00 in0.0 mm 0.01 in0.3 mm
03:00 PM 81.8°F27.7°C 58.4°F14.7°C 45% 6.9 mph N11.1 kmh N 9.2 mph14.8 kmh 29.85 in1010.8 mb - 0.00 in0.0 mm 0.01 in0.3 mm
03:10 PM 83.0°F28.3°C 60.7°F15.9°C 47% 3.5 mph NE5.6 kmh NE 4.6 mph7.4 kmh 29.85 in1010.8 mb - 0.00 in0.0 mm 0.01 in0.3 mm
03:20 PM 83.1°F28.4°C 58.9°F14.9°C 44% 5.8 mph N9.3 kmh N 11.5 mph18.5 kmh 29.84 in1010.5 mb - 0.00 in0.0 mm 0.01 in0.3 mm
03:30 PM 83.4°F28.6°C 60.4°F15.8°C 46% 2.3 mph ENE3.7 kmh ENE 6.9 mph11.1 kmh 29.84 in1010.5 mb - 0.00 in0.0 mm 0.01 in0.3 mm
03:40 PM 83.9°F28.8°C 60.3°F15.7°C 45% 6.9 mph NNE11.1 kmh NNE 9.2 mph14.8 kmh 29.84 in1010.5 mb - 0.00 in0.0 mm 0.01 in0.3 mm
03:50 PM 83.3°F28.5°C 61.0°F16.1°C 47% 3.5 mph NE5.6 kmh NE 9.2 mph14.8 kmh 29.84 in1010.5 mb - 0.00 in0.0 mm 0.01 in0.3 mm
04:00 PM 84.2°F29.0°C 60.6°F15.9°C 45% 4.6 mph NE7.4 kmh NE 8.1 mph13.0 kmh 29.83 in1010.2 mb - 0.00 in0.0 mm 0.01 in0.3 mm
04:10 PM 84.4°F29.1°C 61.3°F16.3°C 46% 4.6 mph NNE7.4 kmh NNE 8.1 mph13.0 kmh 29.83 in1010.2 mb - 0.00 in0.0 mm 0.01 in0.3 mm
04:20 PM 84.1°F28.9°C 62.3°F16.8°C 48% 5.8 mph NE9.3 kmh NE 10.4 mph16.7 kmh 29.82 in1009.8 mb - 0.00 in0.0 mm 0.01 in0.3 mm
04:30 PM 83.6°F28.7°C 61.8°F16.6°C 48% 4.6 mph NE7.4 kmh NE 4.6 mph7.4 kmh 29.82 in1009.8 mb - 0.00 in0.0 mm 0.01 in0.3 mm
04:40 PM 84.0°F28.9°C 61.6°F16.4°C 47% 4.6 mph NNE7.4 kmh NNE 8.1 mph13.0 kmh 29.82 in1009.8 mb - 0.00 in0.0 mm 0.01 in0.3 mm
04:50 PM 83.9°F28.8°C 62.1°F16.7°C 48% 4.6 mph NE7.4 kmh NE 8.1 mph13.0 kmh 29.81 in1009.5 mb - 0.00 in0.0 mm 0.01 in0.3 mm
05:00 PM 84.3°F29.1°C 61.9°F16.6°C 47% 5.8 mph N9.3 kmh N 8.1 mph13.0 kmh 29.81 in1009.5 mb - 0.00 in0.0 mm 0.01 in0.3 mm
05:10 PM 84.5°F29.2°C 61.4°F16.3°C 46% 4.6 mph NNE7.4 kmh NNE 6.9 mph11.1 kmh 29.80 in1009.1 mb - 0.00 in0.0 mm 0.01 in0.3 mm
05:20 PM 83.6°F28.7°C 61.2°F16.2°C 47% 3.5 mph NNE5.6 kmh NNE 5.8 mph9.3 kmh 29.80 in1009.1 mb - 0.00 in0.0 mm 0.01 in0.3 mm
05:30 PM 83.3°F28.5°C 59.8°F15.4°C 45% 4.6 mph ENE7.4 kmh ENE 10.4 mph16.7 kmh 29.80 in1009.1 mb - 0.00 in0.0 mm 0.01 in0.3 mm
05:40 PM 83.7°F28.7°C 59.5°F15.3°C 44% 4.6 mph NE7.4 kmh NE 5.8 mph9.3 kmh 29.80 in1009.1 mb - 0.00 in0.0 mm 0.01 in0.3 mm
05:50 PM 83.7°F28.7°C 60.1°F15.6°C 45% 3.5 mph NNE5.6 kmh NNE 3.5 mph5.6 kmh 29.81 in1009.5 mb - 0.00 in0.0 mm 0.01 in0.3 mm
06:00 PM 83.2°F28.4°C 60.3°F15.7°C 46% 4.6 mph NNE7.4 kmh NNE 11.5 mph18.5 kmh 29.80 in1009.1 mb - 0.00 in0.0 mm 0.01 in0.3 mm
06:10 PM 82.5°F28.1°C 59.6°F15.3°C 46% 3.5 mph ENE5.6 kmh ENE 10.4 mph16.7 kmh 29.80 in1009.1 mb - 0.00 in0.0 mm 0.01 in0.3 mm
06:20 PM 82.5°F28.1°C 60.2°F15.7°C 47% 5.8 mph ENE9.3 kmh ENE 8.1 mph13.0 kmh 29.80 in1009.1 mb - 0.00 in0.0 mm 0.01 in0.3 mm
06:30 PM 82.8°F28.2°C 59.9°F15.5°C 46% 4.6 mph NE7.4 kmh NE 8.1 mph13.0 kmh 29.80 in1009.1 mb - 0.00 in0.0 mm 0.01 in0.3 mm
06:40 PM 82.6°F28.1°C 60.3°F15.7°C 47% 6.9 mph ENE11.1 kmh ENE 10.4 mph16.7 kmh 29.80 in1009.1 mb - 0.00 in0.0 mm 0.01 in0.3 mm
06:50 PM 82.2°F27.9°C 59.4°F15.2°C 46% 6.9 mph E11.1 kmh E 10.4 mph16.7 kmh 29.80 in1009.1 mb - 0.00 in0.0 mm 0.01 in0.3 mm
07:00 PM 81.9°F27.7°C 59.7°F15.4°C 47% 4.6 mph NE7.4 kmh NE 6.9 mph11.1 kmh 29.80 in1009.1 mb - 0.00 in0.0 mm 0.01 in0.3 mm
07:10 PM 81.6°F27.6°C 61.2°F16.2°C 50% 4.6 mph ENE7.4 kmh ENE 11.5 mph18.5 kmh 29.80 in1009.1 mb - 0.00 in0.0 mm 0.01 in0.3 mm
07:20 PM 80.9°F27.2°C 61.6°F16.4°C 52% 3.5 mph ENE5.6 kmh ENE 3.5 mph5.6 kmh 29.80 in1009.1 mb - 0.00 in0.0 mm 0.01 in0.3 mm
07:30 PM 80.5°F26.9°C 61.3°F16.3°C 52% 3.5 mph NE5.6 kmh NE 8.1 mph13.0 kmh 29.80 in1009.1 mb - 0.00 in0.0 mm 0.01 in0.3 mm
07:40 PM 79.8°F26.6°C 59.5°F15.3°C 50% 4.6 mph NE7.4 kmh NE 10.4 mph16.7 kmh 29.80 in1009.1 mb - 0.00 in0.0 mm 0.01 in0.3 mm
07:50 PM 79.0°F26.1°C 59.8°F15.4°C 52% 3.5 mph NE5.6 kmh NE 4.6 mph7.4 kmh 29.80 in1009.1 mb - 0.00 in0.0 mm 0.01 in0.3 mm
08:00 PM 78.1°F25.6°C 60.7°F15.9°C 55% 2.3 mph ENE3.7 kmh ENE 4.6 mph7.4 kmh 29.81 in1009.5 mb - 0.00 in0.0 mm 0.01 in0.3 mm
08:10 PM 77.4°F25.2°C 60.5°F15.8°C 56% 3.5 mph NNE5.6 kmh NNE 4.6 mph7.4 kmh 29.81 in1009.5 mb - 0.00 in0.0 mm 0.01 in0.3 mm
08:20 PM 76.9°F24.9°C 60.9°F16.1°C 58% 2.3 mph NE3.7 kmh NE 3.5 mph5.6 kmh 29.81 in1009.5 mb - 0.00 in0.0 mm 0.01 in0.3 mm
08:30 PM 76.2°F24.6°C 61.3°F16.3°C 60% 2.3 mph NE3.7 kmh NE 3.5 mph5.6 kmh 29.80 in1009.1 mb - 0.00 in0.0 mm 0.01 in0.3 mm
08:40 PM 75.7°F24.3°C 61.3°F16.3°C 61% 2.3 mph ENE3.7 kmh ENE 3.5 mph5.6 kmh 29.80 in1009.1 mb - 0.00 in0.0 mm 0.01 in0.3 mm
08:50 PM 75.1°F23.9°C 61.2°F16.2°C 62% 2.3 mph NE3.7 kmh NE 3.5 mph5.6 kmh 29.80 in1009.1 mb - 0.00 in0.0 mm 0.01 in0.3 mm
09:00 PM 74.6°F23.7°C 61.2°F16.2°C 63% 2.3 mph NE3.7 kmh NE 3.5 mph5.6 kmh 29.81 in1009.5 mb - 0.00 in0.0 mm 0.01 in0.3 mm
09:10 PM 74.3°F23.5°C 61.7°F16.5°C 65% 3.5 mph NE5.6 kmh NE 3.5 mph5.6 kmh 29.81 in1009.5 mb - 0.00 in0.0 mm 0.01 in0.3 mm
09:20 PM 73.9°F23.3°C 61.4°F16.3°C 65% 2.3 mph ENE3.7 kmh ENE 3.5 mph5.6 kmh 29.81 in1009.5 mb - 0.00 in0.0 mm 0.01 in0.3 mm
09:30 PM 73.7°F23.2°C 61.6°F16.4°C 66% 3.5 mph ENE5.6 kmh ENE 4.6 mph7.4 kmh 29.81 in1009.5 mb - 0.00 in0.0 mm 0.01 in0.3 mm
09:40 PM 73.4°F23.0°C 61.3°F16.3°C 66% 2.3 mph NE3.7 kmh NE 3.5 mph5.6 kmh 29.80 in1009.1 mb - 0.00 in0.0 mm 0.01 in0.3 mm
09:50 PM 73.3°F22.9°C 61.7°F16.5°C 67% 2.3 mph NE3.7 kmh NE 3.5 mph5.6 kmh 29.81 in1009.5 mb - 0.00 in0.0 mm 0.01 in0.3 mm
10:00 PM 73.1°F22.8°C 61.5°F16.4°C 67% 2.3 mph NE3.7 kmh NE 4.6 mph7.4 kmh 29.81 in1009.5 mb - 0.00 in0.0 mm 0.01 in0.3 mm
10:10 PM 72.9°F22.7°C 61.3°F16.3°C 67% 4.6 mph ENE7.4 kmh ENE 5.8 mph9.3 kmh 29.82 in1009.8 mb - 0.00 in0.0 mm 0.01 in0.3 mm
10:20 PM 72.9°F22.7°C 61.7°F16.5°C 68% 3.5 mph NE5.6 kmh NE 4.6 mph7.4 kmh 29.82 in1009.8 mb - 0.00 in0.0 mm 0.01 in0.3 mm
10:30 PM 72.9°F22.7°C 61.7°F16.5°C 68% 3.5 mph ENE5.6 kmh ENE 5.8 mph9.3 kmh 29.82 in1009.8 mb - 0.00 in0.0 mm 0.01 in0.3 mm
10:40 PM 72.8°F22.7°C 61.6°F16.4°C 68% 3.5 mph NE5.6 kmh NE 4.6 mph7.4 kmh 29.82 in1009.8 mb - 0.00 in0.0 mm 0.01 in0.3 mm
10:50 PM 72.7°F22.6°C 61.5°F16.4°C 68% 4.6 mph NE7.4 kmh NE 5.8 mph9.3 kmh 29.83 in1010.2 mb - 0.00 in0.0 mm 0.01 in0.3 mm
11:00 PM 72.6°F22.6°C 61.4°F16.3°C 68% 3.5 mph NE5.6 kmh NE 4.6 mph7.4 kmh 29.83 in1010.2 mb - 0.00 in0.0 mm 0.01 in0.3 mm
11:10 PM 72.5°F22.5°C 61.3°F16.3°C 68% 4.6 mph ENE7.4 kmh ENE 6.9 mph11.1 kmh 29.83 in1010.2 mb - 0.00 in0.0 mm 0.01 in0.3 mm
11:20 PM 72.5°F22.5°C 61.3°F16.3°C 68% 5.8 mph ENE9.3 kmh ENE 10.4 mph16.7 kmh 29.83 in1010.2 mb - 0.00 in0.0 mm 0.01 in0.3 mm
11:30 PM 72.6°F22.6°C 61.0°F16.1°C 67% 6.9 mph E11.1 kmh E 12.7 mph20.4 kmh 29.83 in1010.2 mb - 0.00 in0.0 mm 0.01 in0.3 mm
11:40 PM 72.9°F22.7°C 61.3°F16.3°C 67% 6.9 mph E11.1 kmh E 10.4 mph16.7 kmh 29.83 in1010.2 mb - 0.00 in0.0 mm 0.01 in0.3 mm
11:50 PM 72.9°F22.7°C 61.3°F16.3°C 67% 4.6 mph ENE7.4 kmh ENE 6.9 mph11.1 kmh 29.83 in1010.2 mb - 0.00 in0.0 mm 0.01 in0.3 mm